sensor_id;sensor_type;location;lat;lon;timestamp;temperature;humidity
18287;DHT22;9269;50.838;12.094;2024-02-04T00:02:30;11.90;72.00
18287;DHT22;9269;50.838;12.094;2024-02-04T00:05:19;11.70;71.90
18287;DHT22;9269;50.838;12.094;2024-02-04T00:07:50;11.80;71.80
18287;DHT22;9269;50.838;12.094;2024-02-04T00:10:22;11.80;72.00
18287;DHT22;9269;50.838;12.094;2024-02-04T00:12:55;11.60;71.90
18287;DHT22;9269;50.838;12.094;2024-02-04T00:15:29;11.80;72.00
18287;DHT22;9269;50.838;12.094;2024-02-04T00:22:10;11.70;72.00
18287;DHT22;9269;50.838;12.094;2024-02-04T00:24:42;11.80;71.90
18287;DHT22;9269;50.838;12.094;2024-02-04T00:27:25;11.60;71.80
18287;DHT22;9269;50.838;12.094;2024-02-04T00:30:00;11.60;72.00
18287;DHT22;9269;50.838;12.094;2024-02-04T00:32:33;11.70;72.10
18287;DHT22;9269;50.838;12.094;2024-02-04T00:35:08;11.70;72.20
18287;DHT22;9269;50.838;12.094;2024-02-04T00:37:41;11.70;72.20
18287;DHT22;9269;50.838;12.094;2024-02-04T00:40:31;11.80;72.10
18287;DHT22;9269;50.838;12.094;2024-02-04T00:43:08;11.90;72.00
18287;DHT22;9269;50.838;12.094;2024-02-04T00:45:40;11.90;72.10
18287;DHT22;9269;50.838;12.094;2024-02-04T00:48:28;11.80;72.00
18287;DHT22;9269;50.838;12.094;2024-02-04T00:51:13;11.80;72.10
18287;DHT22;9269;50.838;12.094;2024-02-04T00:53:54;11.80;72.10
18287;DHT22;9269;50.838;12.094;2024-02-04T00:56:42;11.70;72.00
18287;DHT22;9269;50.838;12.094;2024-02-04T00:59:30;11.80;72.10
18287;DHT22;9269;50.838;12.094;2024-02-04T01:02:15;11.70;71.90
18287;DHT22;9269;50.838;12.094;2024-02-04T01:05:04;11.70;72.10
18287;DHT22;9269;50.838;12.094;2024-02-04T01:07:46;11.70;72.10
18287;DHT22;9269;50.838;12.094;2024-02-04T01:10:27;11.80;72.00
18287;DHT22;9269;50.838;12.094;2024-02-04T01:13:12;11.70;72.00
18287;DHT22;9269;50.838;12.094;2024-02-04T01:15:44;11.70;72.00
18287;DHT22;9269;50.838;12.094;2024-02-04T01:18:15;11.70;71.90
18287;DHT22;9269;50.838;12.094;2024-02-04T01:21:04;11.60;71.90
18287;DHT22;9269;50.838;12.094;2024-02-04T01:23:36;11.70;71.90
18287;DHT22;9269;50.838;12.094;2024-02-04T01:26:12;11.70;71.90
18287;DHT22;9269;50.838;12.094;2024-02-04T01:29:01;11.70;72.00
18287;DHT22;9269;50.838;12.094;2024-02-04T01:31:37;11.60;72.00
18287;DHT22;9269;50.838;12.094;2024-02-04T01:34:10;11.60;71.90
18287;DHT22;9269;50.838;12.094;2024-02-04T01:36:45;11.50;71.90
18287;DHT22;9269;50.838;12.094;2024-02-04T01:39:33;11.60;71.90
18287;DHT22;9269;50.838;12.094;2024-02-04T01:42:21;11.60;72.00
18287;DHT22;9269;50.838;12.094;2024-02-04T01:44:53;11.80;72.10
18287;DHT22;9269;50.838;12.094;2024-02-04T01:47:26;11.60;72.00
18287;DHT22;9269;50.838;12.094;2024-02-04T01:50:03;11.70;72.10
18287;DHT22;9269;50.838;12.094;2024-02-04T01:52:52;11.80;72.00
18287;DHT22;9269;50.838;12.094;2024-02-04T01:55:40;11.70;72.00
18287;DHT22;9269;50.838;12.094;2024-02-04T01:58:12;11.70;72.10
18287;DHT22;9269;50.838;12.094;2024-02-04T02:00:44;11.70;72.20
18287;DHT22;9269;50.838;12.094;2024-02-04T02:03:33;11.80;72.00
18287;DHT22;9269;50.838;12.094;2024-02-04T02:06:21;11.70;72.00
18287;DHT22;9269;50.838;12.094;2024-02-04T02:09:10;11.60;72.10
18287;DHT22;9269;50.838;12.094;2024-02-04T02:12:03;11.60;72.00
18287;DHT22;9269;50.838;12.094;2024-02-04T02:14:49;11.70;72.10
18287;DHT22;9269;50.838;12.094;2024-02-04T02:17:26;11.70;72.00
18287;DHT22;9269;50.838;12.094;2024-02-04T02:20:21;11.70;72.10
18287;DHT22;9269;50.838;12.094;2024-02-04T02:23:14;11.80;72.00
18287;DHT22;9269;50.838;12.094;2024-02-04T02:26:04;11.70;72.00
18287;DHT22;9269;50.838;12.094;2024-02-04T02:28:53;11.60;72.10
18287;DHT22;9269;50.838;12.094;2024-02-04T02:31:35;11.60;71.90
18287;DHT22;9269;50.838;12.094;2024-02-04T02:34:26;11.60;72.00
18287;DHT22;9269;50.838;12.094;2024-02-04T02:37:33;11.70;71.90
18287;DHT22;9269;50.838;12.094;2024-02-04T02:40:22;11.90;72.00
18287;DHT22;9269;50.838;12.094;2024-02-04T02:43:11;11.80;71.90
18287;DHT22;9269;50.838;12.094;2024-02-04T02:45:57;11.80;72.00
18287;DHT22;9269;50.838;12.094;2024-02-04T02:48:41;11.70;72.10
18287;DHT22;9269;50.838;12.094;2024-02-04T02:51:27;11.70;71.90
18287;DHT22;9269;50.838;12.094;2024-02-04T02:54:15;11.60;71.90
18287;DHT22;9269;50.838;12.094;2024-02-04T02:56:46;11.70;72.00
18287;DHT22;9269;50.838;12.094;2024-02-04T02:59:31;11.60;72.00
18287;DHT22;9269;50.838;12.094;2024-02-04T03:02:18;11.70;72.00
18287;DHT22;9269;50.838;12.094;2024-02-04T03:04:48;11.70;72.00
18287;DHT22;9269;50.838;12.094;2024-02-04T03:07:36;11.80;72.00
18287;DHT22;9269;50.838;12.094;2024-02-04T03:10:17;11.60;72.10
18287;DHT22;9269;50.838;12.094;2024-02-04T03:13:01;11.70;72.20
18287;DHT22;9269;50.838;12.094;2024-02-04T03:15:33;11.70;72.00
18287;DHT22;9269;50.838;12.094;2024-02-04T03:18:06;11.60;72.10
18287;DHT22;9269;50.838;12.094;2024-02-04T03:20:54;11.70;72.10
18287;DHT22;9269;50.838;12.094;2024-02-04T03:23:25;11.70;72.30
18287;DHT22;9269;50.838;12.094;2024-02-04T03:26:11;11.70;72.00
18287;DHT22;9269;50.838;12.094;2024-02-04T03:29:04;11.70;72.10
18287;DHT22;9269;50.838;12.094;2024-02-04T03:31:35;11.70;72.00
18287;DHT22;9269;50.838;12.094;2024-02-04T03:34:21;11.70;72.20
18287;DHT22;9269;50.838;12.094;2024-02-04T03:37:06;11.70;72.10
18287;DHT22;9269;50.838;12.094;2024-02-04T03:39:55;11.60;72.20
18287;DHT22;9269;50.838;12.094;2024-02-04T03:42:43;11.70;72.00
18287;DHT22;9269;50.838;12.094;2024-02-04T03:45:31;11.70;72.20
18287;DHT22;9269;50.838;12.094;2024-02-04T03:48:10;11.80;72.10
18287;DHT22;9269;50.838;12.094;2024-02-04T03:50:58;11.70;72.20
18287;DHT22;9269;50.838;12.094;2024-02-04T03:53:38;11.70;72.20
18287;DHT22;9269;50.838;12.094;2024-02-04T03:56:20;11.70;72.00
18287;DHT22;9269;50.838;12.094;2024-02-04T03:59:08;11.60;72.00
18287;DHT22;9269;50.838;12.094;2024-02-04T04:01:57;11.60;72.20
18287;DHT22;9269;50.838;12.094;2024-02-04T04:04:47;11.60;72.00
18287;DHT22;9269;50.838;12.094;2024-02-04T04:07:32;11.60;72.00
18287;DHT22;9269;50.838;12.094;2024-02-04T04:10:16;11.70;72.10
18287;DHT22;9269;50.838;12.094;2024-02-04T04:13:04;11.70;72.00
18287;DHT22;9269;50.838;12.094;2024-02-04T04:15:53;11.60;72.00
18287;DHT22;9269;50.838;12.094;2024-02-04T04:18:29;11.70;72.20
18287;DHT22;9269;50.838;12.094;2024-02-04T04:21:19;11.70;71.80
18287;DHT22;9269;50.838;12.094;2024-02-04T04:23:57;11.70;72.00
18287;DHT22;9269;50.838;12.094;2024-02-04T04:26:41;11.60;71.90
18287;DHT22;9269;50.838;12.094;2024-02-04T04:29:29;11.70;71.90
18287;DHT22;9269;50.838;12.094;2024-02-04T04:32:17;11.70;72.10
18287;DHT22;9269;50.838;12.094;2024-02-04T04:34:55;11.70;71.90
18287;DHT22;9269;50.838;12.094;2024-02-04T04:37:42;11.70;72.00
18287;DHT22;9269;50.838;12.094;2024-02-04T04:40:23;11.60;72.00
18287;DHT22;9269;50.838;12.094;2024-02-04T04:43:06;11.60;72.00
18287;DHT22;9269;50.838;12.094;2024-02-04T04:45:52;11.70;72.00
18287;DHT22;9269;50.838;12.094;2024-02-04T04:48:36;11.60;72.00
18287;DHT22;9269;50.838;12.094;2024-02-04T04:51:21;11.60;72.10
18287;DHT22;9269;50.838;12.094;2024-02-04T04:54:05;11.80;72.00
18287;DHT22;9269;50.838;12.094;2024-02-04T04:56:53;11.70;72.00
18287;DHT22;9269;50.838;12.094;2024-02-04T04:59:43;11.70;71.90
18287;DHT22;9269;50.838;12.094;2024-02-04T05:02:24;11.80;72.00
18287;DHT22;9269;50.838;12.094;2024-02-04T05:05:04;11.70;71.90
18287;DHT22;9269;50.838;12.094;2024-02-04T05:07:52;11.60;72.00
18287;DHT22;9269;50.838;12.094;2024-02-04T05:10:37;11.60;72.00
18287;DHT22;9269;50.838;12.094;2024-02-04T05:13:25;11.60;72.10
18287;DHT22;9269;50.838;12.094;2024-02-04T05:16:09;11.60;72.10
18287;DHT22;9269;50.838;12.094;2024-02-04T05:18:57;11.80;72.20
18287;DHT22;9269;50.838;12.094;2024-02-04T05:21:27;11.70;72.10
18287;DHT22;9269;50.838;12.094;2024-02-04T05:24:01;11.60;72.10
18287;DHT22;9269;50.838;12.094;2024-02-04T05:26:51;11.70;72.20
18287;DHT22;9269;50.838;12.094;2024-02-04T05:29:41;11.70;72.20
18287;DHT22;9269;50.838;12.094;2024-02-04T05:32:12;11.80;72.20
18287;DHT22;9269;50.838;12.094;2024-02-04T05:35:00;11.80;72.20
18287;DHT22;9269;50.838;12.094;2024-02-04T05:37:30;11.70;72.20
18287;DHT22;9269;50.838;12.094;2024-02-04T05:40:19;11.70;72.20
18287;DHT22;9269;50.838;12.094;2024-02-04T05:42:55;11.90;72.30
18287;DHT22;9269;50.838;12.094;2024-02-04T05:45:28;11.70;72.30
18287;DHT22;9269;50.838;12.094;2024-02-04T05:48:04;11.80;72.30
18287;DHT22;9269;50.838;12.094;2024-02-04T05:50:52;11.80;72.20
18287;DHT22;9269;50.838;12.094;2024-02-04T05:53:38;11.90;72.20
18287;DHT22;9269;50.838;12.094;2024-02-04T05:56:10;11.90;72.30
18287;DHT22;9269;50.838;12.094;2024-02-04T05:58:55;11.90;72.40
18287;DHT22;9269;50.838;12.094;2024-02-04T06:01:43;11.80;72.30
18287;DHT22;9269;50.838;12.094;2024-02-04T06:04:31;11.90;72.40
18287;DHT22;9269;50.838;12.094;2024-02-04T06:07:05;12.00;72.40
18287;DHT22;9269;50.838;12.094;2024-02-04T06:09:42;12.00;72.50
18287;DHT22;9269;50.838;12.094;2024-02-04T06:12:30;11.90;72.40
18287;DHT22;9269;50.838;12.094;2024-02-04T06:15:09;11.80;72.50
18287;DHT22;9269;50.838;12.094;2024-02-04T06:17:44;12.00;72.50
18287;DHT22;9269;50.838;12.094;2024-02-04T06:20:32;11.90;72.50
18287;DHT22;9269;50.838;12.094;2024-02-04T06:23:16;12.00;72.50
18287;DHT22;9269;50.838;12.094;2024-02-04T06:25:51;12.00;72.60
18287;DHT22;9269;50.838;12.094;2024-02-04T06:28:32;11.90;72.60
18287;DHT22;9269;50.838;12.094;2024-02-04T06:31:22;11.80;72.40
18287;DHT22;9269;50.838;12.094;2024-02-04T06:34:10;11.90;72.70
18287;DHT22;9269;50.838;12.094;2024-02-04T06:36:42;11.80;72.60
18287;DHT22;9269;50.838;12.094;2024-02-04T06:39:30;11.90;72.70
18287;DHT22;9269;50.838;12.094;2024-02-04T06:42:14;11.90;72.60
18287;DHT22;9269;50.838;12.094;2024-02-04T06:44:55;11.90;72.60
18287;DHT22;9269;50.838;12.094;2024-02-04T06:47:45;11.80;72.60
18287;DHT22;9269;50.838;12.094;2024-02-04T06:50:28;11.80;72.50
18287;DHT22;9269;50.838;12.094;2024-02-04T06:53:15;11.80;72.60
18287;DHT22;9269;50.838;12.094;2024-02-04T06:55:54;11.90;72.60
18287;DHT22;9269;50.838;12.094;2024-02-04T06:58:41;11.80;72.50
18287;DHT22;9269;50.838;12.094;2024-02-04T07:01:29;11.80;72.50
18287;DHT22;9269;50.838;12.094;2024-02-04T07:04:03;11.80;72.50
18287;DHT22;9269;50.838;12.094;2024-02-04T07:06:51;11.90;72.60
18287;DHT22;9269;50.838;12.094;2024-02-04T07:09:38;11.90;72.40
18287;DHT22;9269;50.838;12.094;2024-02-04T07:12:26;11.90;72.50
18287;DHT22;9269;50.838;12.094;2024-02-04T07:15:00;11.90;72.50
18287;DHT22;9269;50.838;12.094;2024-02-04T07:17:45;11.80;72.50
18287;DHT22;9269;50.838;12.094;2024-02-04T07:20:29;11.80;72.50
18287;DHT22;9269;50.838;12.094;2024-02-04T07:23:17;11.80;72.60
18287;DHT22;9269;50.838;12.094;2024-02-04T07:26:05;11.90;72.60
18287;DHT22;9269;50.838;12.094;2024-02-04T07:28:39;12.00;72.40
18287;DHT22;9269;50.838;12.094;2024-02-04T07:31:15;12.10;72.50
18287;DHT22;9269;50.838;12.094;2024-02-04T07:33:50;11.90;72.50
18287;DHT22;9269;50.838;12.094;2024-02-04T07:36:33;12.00;72.70
18287;DHT22;9269;50.838;12.094;2024-02-04T07:39:04;12.00;72.60
18287;DHT22;9269;50.838;12.094;2024-02-04T07:41:52;12.10;72.70
18287;DHT22;9269;50.838;12.094;2024-02-04T07:44:40;12.10;72.60
18287;DHT22;9269;50.838;12.094;2024-02-04T07:47:28;12.00;72.60
18287;DHT22;9269;50.838;12.094;2024-02-04T07:50:06;12.00;72.70
18287;DHT22;9269;50.838;12.094;2024-02-04T07:52:55;12.10;72.70
18287;DHT22;9269;50.838;12.094;2024-02-04T07:55:44;12.10;72.60
18287;DHT22;9269;50.838;12.094;2024-02-04T07:58:32;12.10;72.70
18287;DHT22;9269;50.838;12.094;2024-02-04T08:01:14;12.10;72.50
18287;DHT22;9269;50.838;12.094;2024-02-04T08:03:48;12.10;72.60
18287;DHT22;9269;50.838;12.094;2024-02-04T08:06:20;12.20;72.60
18287;DHT22;9269;50.838;12.094;2024-02-04T08:09:09;12.30;72.50
18287;DHT22;9269;50.838;12.094;2024-02-04T08:11:58;12.30;72.60
18287;DHT22;9269;50.838;12.094;2024-02-04T08:14:46;12.20;72.50
18287;DHT22;9269;50.838;12.094;2024-02-04T08:17:20;12.30;72.60
18287;DHT22;9269;50.838;12.094;2024-02-04T08:19:58;12.20;72.50
18287;DHT22;9269;50.838;12.094;2024-02-04T08:22:38;12.30;72.50
18287;DHT22;9269;50.838;12.094;2024-02-04T08:25:16;12.30;72.70
18287;DHT22;9269;50.838;12.094;2024-02-04T08:28:05;12.30;72.60
18287;DHT22;9269;50.838;12.094;2024-02-04T08:30:53;12.20;72.70
18287;DHT22;9269;50.838;12.094;2024-02-04T08:33:28;12.30;72.50
18287;DHT22;9269;50.838;12.094;2024-02-04T08:36:08;12.40;72.30
18287;DHT22;9269;50.838;12.094;2024-02-04T08:38:57;12.40;72.40
18287;DHT22;9269;50.838;12.094;2024-02-04T08:41:30;12.40;72.40
18287;DHT22;9269;50.838;12.094;2024-02-04T08:44:04;12.50;72.50
18287;DHT22;9269;50.838;12.094;2024-02-04T08:46:45;12.50;72.40
18287;DHT22;9269;50.838;12.094;2024-02-04T08:49:16;12.60;72.30
18287;DHT22;9269;50.838;12.094;2024-02-04T08:51:55;12.60;72.40
18287;DHT22;9269;50.838;12.094;2024-02-04T08:54:43;12.70;72.30
18287;DHT22;9269;50.838;12.094;2024-02-04T08:57:34;12.80;70.90
18287;DHT22;9269;50.838;12.094;2024-02-04T09:00:13;12.70;71.00
18287;DHT22;9269;50.838;12.094;2024-02-04T09:02:45;12.80;70.90
18287;DHT22;9269;50.838;12.094;2024-02-04T09:05:27;12.90;71.00
18287;DHT22;9269;50.838;12.094;2024-02-04T09:08:10;12.80;71.00
18287;DHT22;9269;50.838;12.094;2024-02-04T09:10:59;13.00;70.80
18287;DHT22;9269;50.838;12.094;2024-02-04T09:13:37;13.00;70.90
18287;DHT22;9269;50.838;12.094;2024-02-04T09:16:32;13.00;70.80
18287;DHT22;9269;50.838;12.094;2024-02-04T09:19:19;13.00;70.80
18287;DHT22;9269;50.838;12.094;2024-02-04T09:22:03;13.00;70.70
18287;DHT22;9269;50.838;12.094;2024-02-04T09:24:41;13.00;70.70
18287;DHT22;9269;50.838;12.094;2024-02-04T09:27:36;13.00;71.00
18287;DHT22;9269;50.838;12.094;2024-02-04T09:30:32;13.00;70.80
18287;DHT22;9269;50.838;12.094;2024-02-04T09:33:13;12.80;70.90
18287;DHT22;9269;50.838;12.094;2024-02-04T09:36:13;12.90;71.10
18287;DHT22;9269;50.838;12.094;2024-02-04T09:39:02;12.90;70.90
18287;DHT22;9269;50.838;12.094;2024-02-04T09:41:51;12.90;71.00
18287;DHT22;9269;50.838;12.094;2024-02-04T09:44:36;13.00;70.90
18287;DHT22;9269;50.838;12.094;2024-02-04T09:47:16;13.00;71.00
18287;DHT22;9269;50.838;12.094;2024-02-04T09:49:59;13.00;71.00
18287;DHT22;9269;50.838;12.094;2024-02-04T09:52:41;13.10;71.00
18287;DHT22;9269;50.838;12.094;2024-02-04T09:55:29;13.10;70.90
18287;DHT22;9269;50.838;12.094;2024-02-04T09:58:17;13.00;70.80
18287;DHT22;9269;50.838;12.094;2024-02-04T10:01:10;13.00;70.80
18287;DHT22;9269;50.838;12.094;2024-02-04T10:04:31;13.10;65.80
18287;DHT22;9269;50.838;12.094;2024-02-04T10:07:16;13.10;70.60
18287;DHT22;9269;50.838;12.094;2024-02-04T10:09:51;13.10;70.70
18287;DHT22;9269;50.838;12.094;2024-02-04T10:13:12;13.00;65.70
18287;DHT22;9269;50.838;12.094;2024-02-04T10:16:05;13.10;65.40
18287;DHT22;9269;50.838;12.094;2024-02-04T10:19:15;13.10;65.40
18287;DHT22;9269;50.838;12.094;2024-02-04T10:25:15;13.20;64.80
18287;DHT22;9269;50.838;12.094;2024-02-04T10:27:50;13.20;64.60
18287;DHT22;9269;50.838;12.094;2024-02-04T10:30:39;13.30;64.50
18287;DHT22;9269;50.838;12.094;2024-02-04T10:33:29;13.30;63.80
18287;DHT22;9269;50.838;12.094;2024-02-04T10:36:17;13.40;63.50
18287;DHT22;9269;50.838;12.094;2024-02-04T10:39:04;13.50;63.10
18287;DHT22;9269;50.838;12.094;2024-02-04T10:41:49;13.50;62.80
18287;DHT22;9269;50.838;12.094;2024-02-04T10:44:39;13.40;62.70
18287;DHT22;9269;50.838;12.094;2024-02-04T10:47:31;13.50;62.10
18287;DHT22;9269;50.838;12.094;2024-02-04T10:50:16;13.60;61.40
18287;DHT22;9269;50.838;12.094;2024-02-04T10:52:52;13.60;61.20
18287;DHT22;9269;50.838;12.094;2024-02-04T10:55:27;13.60;60.90
18287;DHT22;9269;50.838;12.094;2024-02-04T10:58:13;13.60;60.50
18287;DHT22;9269;50.838;12.094;2024-02-04T11:00:55;13.60;60.30
18287;DHT22;9269;50.838;12.094;2024-02-04T11:03:45;13.70;59.70
18287;DHT22;9269;50.838;12.094;2024-02-04T11:06:34;13.70;58.80
18287;DHT22;9269;50.838;12.094;2024-02-04T11:09:19;13.80;58.50
18287;DHT22;9269;50.838;12.094;2024-02-04T11:12:06;13.80;57.70
18287;DHT22;9269;50.838;12.094;2024-02-04T11:14:50;13.80;57.50
18287;DHT22;9269;50.838;12.094;2024-02-04T11:18:15;13.80;56.50
18287;DHT22;9269;50.838;12.094;2024-02-04T11:21:14;13.80;56.00
18287;DHT22;9269;50.838;12.094;2024-02-04T11:23:57;13.80;56.00
18287;DHT22;9269;50.838;12.094;2024-02-04T11:26:49;13.80;55.20
18287;DHT22;9269;50.838;12.094;2024-02-04T11:29:28;13.90;55.30
18287;DHT22;9269;50.838;12.094;2024-02-04T11:32:09;13.80;55.50
18287;DHT22;9269;50.838;12.094;2024-02-04T11:34:50;13.80;55.90
18287;DHT22;9269;50.838;12.094;2024-02-04T11:37:23;13.80;56.60
18287;DHT22;9269;50.838;12.094;2024-02-04T11:40:06;13.70;57.50
18287;DHT22;9269;50.838;12.094;2024-02-04T11:42:43;13.60;58.60
18287;DHT22;9269;50.838;12.094;2024-02-04T11:45:21;13.60;59.50
18287;DHT22;9269;50.838;12.094;2024-02-04T11:48:00;13.60;60.10
18287;DHT22;9269;50.838;12.094;2024-02-04T11:50:53;13.60;60.70
18287;DHT22;9269;50.838;12.094;2024-02-04T11:53:28;13.70;60.30
18287;DHT22;9269;50.838;12.094;2024-02-04T11:56:09;13.60;60.80
18287;DHT22;9269;50.838;12.094;2024-02-04T11:58:58;13.60;61.60
18287;DHT22;9269;50.838;12.094;2024-02-04T12:01:31;13.60;61.60
18287;DHT22;9269;50.838;12.094;2024-02-04T12:04:23;13.70;62.10
18287;DHT22;9269;50.838;12.094;2024-02-04T12:07:11;13.70;62.40
18287;DHT22;9269;50.838;12.094;2024-02-04T12:09:43;13.70;62.20
18287;DHT22;9269;50.838;12.094;2024-02-04T12:12:27;13.70;62.20
18287;DHT22;9269;50.838;12.094;2024-02-04T12:15:18;13.80;62.40
18287;DHT22;9269;50.838;12.094;2024-02-04T12:17:51;13.70;62.60
18287;DHT22;9269;50.838;12.094;2024-02-04T12:20:40;13.80;62.50
18287;DHT22;9269;50.838;12.094;2024-02-04T12:23:28;13.60;63.10
18287;DHT22;9269;50.838;12.094;2024-02-04T12:26:16;13.70;63.20
18287;DHT22;9269;50.838;12.094;2024-02-04T12:28:58;13.70;63.00
18287;DHT22;9269;50.838;12.094;2024-02-04T12:31:47;13.80;63.00
18287;DHT22;9269;50.838;12.094;2024-02-04T12:34:18;13.80;63.30
18287;DHT22;9269;50.838;12.094;2024-02-04T12:37:00;13.70;63.50
18287;DHT22;9269;50.838;12.094;2024-02-04T12:39:45;13.70;63.90
18287;DHT22;9269;50.838;12.094;2024-02-04T12:42:29;13.70;63.70
18287;DHT22;9269;50.838;12.094;2024-02-04T12:45:07;13.60;63.90
18287;DHT22;9269;50.838;12.094;2024-02-04T12:47:57;13.60;64.30
18287;DHT22;9269;50.838;12.094;2024-02-04T12:50:45;13.70;63.90
18287;DHT22;9269;50.838;12.094;2024-02-04T12:53:28;13.60;64.50
18287;DHT22;9269;50.838;12.094;2024-02-04T12:56:16;13.60;64.40
18287;DHT22;9269;50.838;12.094;2024-02-04T12:59:04;13.50;64.20
18287;DHT22;9269;50.838;12.094;2024-02-04T13:01:42;13.60;64.40
18287;DHT22;9269;50.838;12.094;2024-02-04T13:04:33;13.60;64.60
18287;DHT22;9269;50.838;12.094;2024-02-04T13:07:13;13.60;64.40
18287;DHT22;9269;50.838;12.094;2024-02-04T13:09:59;13.50;64.20
18287;DHT22;9269;50.838;12.094;2024-02-04T13:12:36;13.60;64.80
18287;DHT22;9269;50.838;12.094;2024-02-04T13:15:16;13.60;64.80
18287;DHT22;9269;50.838;12.094;2024-02-04T13:17:52;13.50;65.30
18287;DHT22;9269;50.838;12.094;2024-02-04T13:20:32;13.50;65.30
18287;DHT22;9269;50.838;12.094;2024-02-04T13:23:19;13.50;65.20
18287;DHT22;9269;50.838;12.094;2024-02-04T13:26:05;13.60;65.20
18287;DHT22;9269;50.838;12.094;2024-02-04T13:28:38;13.50;65.00
18287;DHT22;9269;50.838;12.094;2024-02-04T13:31:14;13.50;65.20
18287;DHT22;9269;50.838;12.094;2024-02-04T13:33:48;13.60;65.50
18287;DHT22;9269;50.838;12.094;2024-02-04T13:36:37;13.50;65.70
18287;DHT22;9269;50.838;12.094;2024-02-04T13:39:13;13.50;65.40
18287;DHT22;9269;50.838;12.094;2024-02-04T13:41:45;13.50;65.80
18287;DHT22;9269;50.838;12.094;2024-02-04T13:44:27;13.50;65.80
18287;DHT22;9269;50.838;12.094;2024-02-04T13:47:11;13.50;65.70
18287;DHT22;9269;50.838;12.094;2024-02-04T13:49:58;13.60;65.60
18287;DHT22;9269;50.838;12.094;2024-02-04T13:52:47;13.50;70.70
18287;DHT22;9269;50.838;12.094;2024-02-04T13:55:35;13.60;65.90
18287;DHT22;9269;50.838;12.094;2024-02-04T13:58:25;13.60;65.70
18287;DHT22;9269;50.838;12.094;2024-02-04T14:01:07;13.60;65.90
18287;DHT22;9269;50.838;12.094;2024-02-04T14:03:57;13.70;65.80
18287;DHT22;9269;50.838;12.094;2024-02-04T14:06:29;13.60;70.70
18287;DHT22;9269;50.838;12.094;2024-02-04T14:09:16;13.60;70.80
18287;DHT22;9269;50.838;12.094;2024-02-04T14:12:05;13.70;70.80
18287;DHT22;9269;50.838;12.094;2024-02-04T14:14:43;13.70;70.80
18287;DHT22;9269;50.838;12.094;2024-02-04T14:17:25;13.80;70.90
18287;DHT22;9269;50.838;12.094;2024-02-04T14:20:10;13.70;70.80
18287;DHT22;9269;50.838;12.094;2024-02-04T14:22:41;13.70;70.80
18287;DHT22;9269;50.838;12.094;2024-02-04T14:25:11;13.60;70.90
18287;DHT22;9269;50.838;12.094;2024-02-04T14:27:59;13.60;70.90
18287;DHT22;9269;50.838;12.094;2024-02-04T14:30:43;13.60;70.90
18287;DHT22;9269;50.838;12.094;2024-02-04T14:33:14;13.60;70.90
18287;DHT22;9269;50.838;12.094;2024-02-04T14:35:57;13.50;70.80
18287;DHT22;9269;50.838;12.094;2024-02-04T14:38:47;13.50;70.90
18287;DHT22;9269;50.838;12.094;2024-02-04T14:41:35;13.50;70.80
18287;DHT22;9269;50.838;12.094;2024-02-04T14:44:23;13.40;70.90
18287;DHT22;9269;50.838;12.094;2024-02-04T14:47:12;13.40;70.80
18287;DHT22;9269;50.838;12.094;2024-02-04T14:49:52;13.40;70.80
18287;DHT22;9269;50.838;12.094;2024-02-04T14:52:28;13.30;71.00
18287;DHT22;9269;50.838;12.094;2024-02-04T14:55:01;13.30;71.10
18287;DHT22;9269;50.838;12.094;2024-02-04T14:57:36;13.30;71.10
18287;DHT22;9269;50.838;12.094;2024-02-04T15:00:24;13.30;71.10
18287;DHT22;9269;50.838;12.094;2024-02-04T15:03:03;13.30;71.00
18287;DHT22;9269;50.838;12.094;2024-02-04T15:05:51;13.30;71.00
18287;DHT22;9269;50.838;12.094;2024-02-04T15:08:40;13.40;71.00
18287;DHT22;9269;50.838;12.094;2024-02-04T15:11:09;13.30;71.10
18287;DHT22;9269;50.838;12.094;2024-02-04T15:13:47;13.30;71.10
18287;DHT22;9269;50.838;12.094;2024-02-04T15:16:17;13.30;71.30
18287;DHT22;9269;50.838;12.094;2024-02-04T15:19:07;13.30;71.30
18287;DHT22;9269;50.838;12.094;2024-02-04T15:21:56;13.30;71.20
18287;DHT22;9269;50.838;12.094;2024-02-04T15:24:37;13.20;71.30
18287;DHT22;9269;50.838;12.094;2024-02-04T15:27:11;13.20;71.30
18287;DHT22;9269;50.838;12.094;2024-02-04T15:29:49;13.30;71.20
18287;DHT22;9269;50.838;12.094;2024-02-04T15:32:28;13.20;71.10
18287;DHT22;9269;50.838;12.094;2024-02-04T15:35:19;13.20;71.40
18287;DHT22;9269;50.838;12.094;2024-02-04T15:38:07;13.20;71.40
18287;DHT22;9269;50.838;12.094;2024-02-04T15:40:55;13.10;71.50
18287;DHT22;9269;50.838;12.094;2024-02-04T15:43:43;13.10;71.40
18287;DHT22;9269;50.838;12.094;2024-02-04T15:46:32;13.20;71.20
18287;DHT22;9269;50.838;12.094;2024-02-04T15:49:13;13.10;71.30
18287;DHT22;9269;50.838;12.094;2024-02-04T15:51:49;13.10;71.20
18287;DHT22;9269;50.838;12.094;2024-02-04T15:54:34;13.00;71.30
18287;DHT22;9269;50.838;12.094;2024-02-04T15:57:16;13.10;71.30
18287;DHT22;9269;50.838;12.094;2024-02-04T16:00:02;13.20;71.50
18287;DHT22;9269;50.838;12.094;2024-02-04T16:03:05;13.20;71.40
18287;DHT22;9269;50.838;12.094;2024-02-04T16:05:34;13.10;71.20
18287;DHT22;9269;50.838;12.094;2024-02-04T16:08:05;13.10;71.10
18287;DHT22;9269;50.838;12.094;2024-02-04T16:10:35;13.10;71.30
18287;DHT22;9269;50.838;12.094;2024-02-04T16:13:07;13.10;71.40
18287;DHT22;9269;50.838;12.094;2024-02-04T16:15:38;13.00;71.30
18287;DHT22;9269;50.838;12.094;2024-02-04T16:18:19;13.10;71.20
18287;DHT22;9269;50.838;12.094;2024-02-04T16:20:48;13.10;71.30
18287;DHT22;9269;50.838;12.094;2024-02-04T16:23:20;13.00;71.30
18287;DHT22;9269;50.838;12.094;2024-02-04T16:25:50;13.00;71.40
18287;DHT22;9269;50.838;12.094;2024-02-04T16:28:19;13.00;71.40
18287;DHT22;9269;50.838;12.094;2024-02-04T16:30:53;13.00;71.40
18287;DHT22;9269;50.838;12.094;2024-02-04T16:33:41;13.00;71.40
18287;DHT22;9269;50.838;12.094;2024-02-04T16:36:18;13.00;71.40
18287;DHT22;9269;50.838;12.094;2024-02-04T16:38:48;13.00;71.50
18287;DHT22;9269;50.838;12.094;2024-02-04T16:41:36;13.00;71.50
18287;DHT22;9269;50.838;12.094;2024-02-04T16:44:05;13.00;71.30
18287;DHT22;9269;50.838;12.094;2024-02-04T16:46:33;13.00;71.50
18287;DHT22;9269;50.838;12.094;2024-02-04T16:49:18;13.00;71.40
18287;DHT22;9269;50.838;12.094;2024-02-04T16:51:50;13.00;71.60
18287;DHT22;9269;50.838;12.094;2024-02-04T16:54:40;13.00;71.50
18287;DHT22;9269;50.838;12.094;2024-02-04T16:57:10;12.90;71.40
18287;DHT22;9269;50.838;12.094;2024-02-04T16:59:41;12.90;71.60
18287;DHT22;9269;50.838;12.094;2024-02-04T17:02:27;12.80;71.60
18287;DHT22;9269;50.838;12.094;2024-02-04T17:05:07;12.90;71.50
18287;DHT22;9269;50.838;12.094;2024-02-04T17:07:39;12.90;71.60
18287;DHT22;9269;50.838;12.094;2024-02-04T17:10:11;12.90;71.80
18287;DHT22;9269;50.838;12.094;2024-02-04T17:12:41;12.80;71.80
18287;DHT22;9269;50.838;12.094;2024-02-04T17:15:16;12.90;71.80